• Join FlightAware (Why Join?)
  • Login
  • US Flag 
02:14AM EDT


 

Airport Tracker/Info


-or-


 

Live Flight TrackerFlight Track Log ✈ N140AF ✈ 07-May-2013 ✈ KMDW - KBTL

Flight Track Log - Related Links

Times and Time Zones

All times are in EDT time to prevent confusion due to time zone crossing. See the N140AF flight status page for this flight to view local times or setup timezone preferences in your user account.

Time Position Orientation Groundspeed Altitude Reporting Facility
EDT Latitude Longitude Course Direction KTS MPH feet Rate Location/Type
12:24AM 41.8000 -87.7167 90° East 78 90 1,700  Level Chicago TRACON
12:25AM 41.8000 -87.6833 90° East 83 96 2,200 540 Climbing Chicago TRACON
12:26AM 41.8000 -87.6500 90° East 89 102 2,800 360 Climbing Chicago TRACON
12:27AM 41.8000 -87.6167 90° East 111 128 3,000 360 Climbing Chicago TRACON
12:28AM 41.7947 -87.5925 106° East 92 106 3,500 600 Climbing Chicago Center
12:29AM 41.7769 -87.5678 134° Southeast 91 105 4,100 540 Climbing Chicago Center
12:30AM 41.7833 -87.4454 90° East  Level FlightAware Approximate
12:30AM 41.7594 -87.5425 133° Southeast 92 106 4,600  Level Chicago Center
12:31AM 41.7419 -87.5183 134° Southeast 91 105 5,000 180 Climbing Chicago Center
12:32AM 41.7192 -87.4856 133° Southeast 111 128 5,000 300 Level Chicago Center
12:33AM 41.6958 -87.4536 134° Southeast 120 138 5,700 480 Climbing Chicago Center
12:34AM 41.6767 -87.4233 130° Southeast 109 125 6,000 120 Climbing Chicago Center
12:35AM 41.6703 -87.3822 102° East 124 143 6,000  Level Chicago Center
12:36AM 41.6717 -87.3319 88° East 134 154 6,000  Level Chicago Center
12:37AM 41.6733 -87.2814 87° East 136 157 6,000  Level Chicago Center
12:38AM 41.6753 -87.2308 87° East 137 158 6,000  Level Chicago Center
12:39AM 41.6783 -87.1800 85° East 138 159 6,000  Level Chicago Center
12:40AM 41.6808 -87.1297 86° East 136 157 6,000  Level Chicago Center
12:41AM 41.6833 -87.0792 86° East 137 158 6,000 300 Level Chicago Center
12:42AM 41.6844 -87.0389 88° East 108 124 6,700 480 Climbing Chicago Center
12:43AM 41.6858 -87.0000 87° East 103 119 7,000 120 Climbing Chicago Center
12:44AM 41.6883 -86.9539 86° East 122 140 7,000  Level Chicago Center
12:45AM 41.6956 -86.9039 79° East 138 159 7,000  Level Chicago Center
12:46AM 41.7142 -86.8583 61° Northeast 141 162 7,000  Level Chicago Center
12:47AM 41.7328 -86.8131 61° Northeast 140 161 7,000  Level Chicago Center
12:48AM 41.7492 -86.7672 64° Northeast 137 158 7,000  Level Chicago Center
12:49AM 41.7658 -86.7208 64° Northeast 139 160 7,000  Level Chicago Center
12:50AM 41.7861 -86.6692 62° Northeast 139 160 7,000  Level Chicago Center
12:51AM 41.8022 -86.6233 65° Northeast 137 158 7,000  Level Chicago Center
12:52AM 41.8197 -86.5789 62° Northeast 135 155 7,000  Level Chicago Center
12:53AM 41.8369 -86.5336 63° Northeast 136 157 7,000  Level Chicago Center
12:54AM 41.8528 -86.4897 64° Northeast 133 153 7,000  Level Chicago Center
12:55AM 41.8703 -86.4458 62° Northeast 133 153 7,000  Level Chicago Center
12:56AM 41.8856 -86.4011 65° Northeast 133 153 7,000 -120 Level Chicago Center
12:57AM 41.9033 -86.3569 62° Northeast 134 154 6,800 -360 Descending Chicago Center
12:58AM 41.9192 -86.3108 65° Northeast 137 158 6,300 -540 Descending Chicago Center
12:59AM 41.9378 -86.2617 63° Northeast 146 168 5,800 -540 Descending Chicago Center
01:00AM 41.9558 -86.2119 64° Northeast 147 169 5,300 -420 Descending Chicago Center
01:01AM 41.9747 -86.1619 63° Northeast 150 173 5,000 -300 Descending Chicago Center
01:02AM 41.9925 -86.1136 64° Northeast 147 169 4,700 -360 Descending Chicago Center
01:03AM 42.0122 -86.0603 64° Northeast 154 177 4,300 -480 Descending Chicago Center
01:04AM 42.0319 -86.0078 63° Northeast 158 182 3,800 -540 Descending Chicago Center
01:05AM 42.0514 -85.9528 65° Northeast 160 184 3,300 -420 Descending Chicago Center
01:06AM 42.0719 -85.9000 62° Northeast 160 184 3,000 -180 Descending Chicago Center
01:07AM 42.0900 -85.8492 64° Northeast 155 178 3,000  Level Chicago Center
01:08AM 42.1072 -85.8033 63° Northeast 144 166 3,000  Level Chicago Center
01:09AM 42.1228 -85.7569 66° East 137 158 3,000  Level Chicago Center
01:10AM 42.1394 -85.7119 63° Northeast 136 157 3,000  Level Chicago Center
01:11AM 42.1569 -85.6664 63° Northeast 137 158 3,000  Level Chicago Center
01:12AM 42.1739 -85.6200 64° Northeast 138 159 3,000  Level Chicago Center
01:13AM 42.1903 -85.5728 65° Northeast 139 160 3,000  Level Chicago Center